Time;durP1;ratioP1;P1;durP2;ratioP2;P2;SDS_P1;SDS_P2;PMS_P1;PMS_P2;Temp;Humidity;BMP_temperature;BMP_pressure;BME280_temperature;BME280_humidity;BME280_pressure;Samples;Min_cycle;Max_cycle;Signal;HPM_P1;HPM_P2
2023/04/24 00:00:27;;;;;;;5.80;3.35;;;11.70;99.90;;;;;;5087831;28;20180;-74
2023/04/24 00:02:56;;;;;;;2.83;2.63;;;11.70;99.90;;;;;;5082288;28;20044;-74
2023/04/24 00:05:22;;;;;;;2.90;2.70;;;11.80;99.90;;;;;;5088188;28;20051;-74
2023/04/24 00:07:54;;;;;;;2.88;2.67;;;11.70;99.90;;;;;;5083711;28;20036;-74
2023/04/24 00:10:19;;;;;;;3.08;2.83;;;11.70;99.90;;;;;;5082941;28;20084;-73
2023/04/24 00:12:45;;;;;;;2.95;2.50;;;11.60;99.90;;;;;;5084645;28;20068;-74
2023/04/24 00:15:11;;;;;;;2.90;2.60;;;11.60;99.90;;;;;;5082193;28;20047;-75
2023/04/24 00:17:37;;;;;;;2.60;2.40;;;11.50;99.90;;;;;;5066819;28;20048;-74
2023/04/24 00:20:04;;;;;;;3.53;2.60;;;11.50;99.90;;;;;;5087178;28;20082;-73
2023/04/24 00:22:31;;;;;;;2.15;1.95;;;11.50;99.90;;;;;;5082510;28;20054;-74
2023/04/24 00:24:57;;;;;;;1.98;1.60;;;11.50;99.90;;;;;;5082972;28;20470;-73
2023/04/24 00:27:23;;;;;;;2.20;1.30;;;11.40;99.90;;;;;;5079679;28;20063;-73
2023/04/24 00:29:49;;;;;;;2.10;1.23;;;11.40;99.90;;;;;;5079883;28;20032;-74
2023/04/24 00:32:15;;;;;;;1.38;1.20;;;11.40;99.90;;;;;;5078632;28;20070;-74
2023/04/24 00:34:41;;;;;;;2.08;1.10;;;11.30;99.90;;;;;;5085369;28;20044;-72
2023/04/24 00:37:07;;;;;;;1.40;1.23;;;11.30;99.90;;;;;;5079009;28;20035;-73
2023/04/24 00:39:36;;;;;;;1.42;1.33;;;11.30;99.90;;;;;;5084625;28;20044;-74
2023/04/24 00:42:06;;;;;;;1.70;1.60;;;11.30;99.90;;;;;;5080503;28;20032;-73
2023/04/24 00:44:33;;;;;;;2.38;1.85;;;11.20;99.90;;;;;;5077727;28;20483;-74
2023/04/24 00:47:00;;;;;;;2.25;2.10;;;11.20;99.90;;;;;;5063162;28;20525;-73
2023/04/24 00:49:26;;;;;;;3.03;2.73;;;11.20;99.90;;;;;;5080311;28;20048;-73
2023/04/24 00:51:53;;;;;;;2.67;2.47;;;11.20;99.90;;;;;;5053732;28;20090;-73
2023/04/24 00:54:20;;;;;;;3.03;2.83;;;11.20;99.90;;;;;;5076839;28;20040;-74
2023/04/24 00:56:46;;;;;;;3.50;3.20;;;11.20;99.90;;;;;;5084874;28;20122;-74
2023/04/24 00:59:12;;;;;;;3.55;3.30;;;11.10;99.90;;;;;;5065708;28;20079;-73
2023/04/24 01:01:41;;;;;;;3.70;3.40;;;11.10;99.90;;;;;;5078888;28;20052;-74
2023/04/24 01:04:09;;;;;;;4.22;3.50;;;11.10;99.90;;;;;;5080834;28;20067;-73
2023/04/24 01:06:38;;;;;;;3.85;3.45;;;11.10;99.90;;;;;;5086939;28;20051;-73
2023/04/24 01:09:04;;;;;;;3.60;3.10;;;11.10;99.90;;;;;;5074675;28;20044;-74
2023/04/24 01:11:30;;;;;;;4.32;4.00;;;11.10;99.90;;;;;;5073757;28;20093;-74
2023/04/24 01:13:57;;;;;;;3.90;3.50;;;11.00;99.90;;;;;;5079003;28;20040;-74
2023/04/24 01:16:23;;;;;;;4.03;3.73;;;11.00;99.90;;;;;;5088822;28;20042;-73
2023/04/24 01:18:48;;;;;;;4.50;4.10;;;11.00;99.90;;;;;;5064047;28;20832;-73
2023/04/24 01:21:16;;;;;;;5.28;4.78;;;11.00;99.90;;;;;;5084797;28;20043;-73
2023/04/24 01:23:45;;;;;;;;;;;11.00;99.90;;;;;;5060757;28;20091;-74
2023/04/24 01:26:11;;;;;;;5.68;5.18;;;11.00;99.90;;;;;;5082570;28;19928;-74
2023/04/24 01:28:38;;;;;;;6.93;6.27;;;11.00;99.90;;;;;;5055918;28;20090;-74
2023/04/24 01:31:06;;;;;;;7.03;6.32;;;11.00;99.90;;;;;;5064098;28;20036;-73
2023/04/24 01:33:32;;;;;;;7.43;6.72;;;11.00;99.90;;;;;;5060977;28;20109;-74
2023/04/24 01:35:58;;;;;;;7.82;7.13;;;11.00;99.90;;;;;;5086494;28;20585;-73
2023/04/24 01:38:24;;;;;;;7.68;6.95;;;11.00;99.90;;;;;;5089620;28;20044;-74
2023/04/24 01:40:51;;;;;;;8.02;7.32;;;11.00;99.90;;;;;;5084597;28;20560;-73
2023/04/24 01:43:17;;;;;;;9.05;7.90;;;10.90;99.90;;;;;;5089539;28;20122;-74
2023/04/24 01:45:43;;;;;;;9.03;8.23;;;10.90;99.90;;;;;;5074735;28;20036;-73
2023/04/24 01:48:09;;;;;;;8.93;8.02;;;11.00;99.90;;;;;;5091046;28;20055;-74
2023/04/24 01:50:35;;;;;;;8.98;8.15;;;11.00;99.90;;;;;;5083755;28;20036;-74
2023/04/24 01:53:00;;;;;;;7.95;7.25;;;11.00;99.90;;;;;;5080217;28;20093;-73
2023/04/24 01:55:29;;;;;;;8.32;7.53;;;11.00;99.90;;;;;;5069451;28;20127;-74
2023/04/24 01:57:56;;;;;;;8.73;7.82;;;11.00;99.90;;;;;;5080933;28;20055;-74
2023/04/24 02:00:22;;;;;;;8.05;7.25;;;10.90;99.90;;;;;;5090436;28;20108;-73
2023/04/24 02:02:47;;;;;;;7.43;6.72;;;11.00;99.90;;;;;;5089056;28;20052;-74
2023/04/24 02:05:13;;;;;;;7.25;6.55;;;11.00;99.90;;;;;;5087050;28;20048;-73
2023/04/24 02:07:39;;;;;;;7.25;6.57;;;11.00;99.90;;;;;;5068341;28;20039;-73
2023/04/24 02:10:06;;;;;;;6.82;6.22;;;11.00;99.90;;;;;;5068148;28;20035;-74
2023/04/24 02:12:32;;;;;;;7.55;6.82;;;11.00;99.90;;;;;;5079731;28;20777;-74
2023/04/24 02:14:58;;;;;;;7.03;6.32;;;11.00;99.90;;;;;;5086010;28;20183;-73
2023/04/24 02:17:23;;;;;;;7.38;6.53;;;11.00;99.90;;;;;;5068860;28;20054;-73
2023/04/24 02:19:49;;;;;;;7.07;6.38;;;11.00;99.90;;;;;;5090102;28;20036;-73
2023/04/24 02:22:15;;;;;;;7.13;6.28;;;11.00;99.90;;;;;;5066928;28;20058;-73
2023/04/24 02:24:40;;;;;;;7.60;6.90;;;11.00;99.90;;;;;;5086721;28;20040;-73
2023/04/24 02:27:06;;;;;;;7.45;6.75;;;11.00;99.90;;;;;;5085367;28;20028;-72
2023/04/24 02:29:32;;;;;;;7.90;7.20;;;11.00;99.90;;;;;;5083876;28;20040;-74
2023/04/24 02:31:57;;;;;;;7.32;6.72;;;11.00;99.90;;;;;;5087715;28;20439;-72
2023/04/24 02:34:23;;;;;;;7.85;7.00;;;11.00;99.90;;;;;;5084679;28;20067;-72
2023/04/24 02:36:49;;;;;;;6.90;6.30;;;11.00;99.90;;;;;;5076228;28;20105;-73
2023/04/24 02:39:16;;;;;;;7.10;6.40;;;11.00;99.90;;;;;;5083309;28;20532;-76
2023/04/24 02:41:42;;;;;;;6.15;5.50;;;11.00;99.90;;;;;;5085578;28;20089;-74
2023/04/24 02:44:08;;;;;;;5.75;5.25;;;11.00;99.90;;;;;;5067612;28;20521;-74
2023/04/24 02:46:41;;;;;;;5.78;5.18;;;11.00;99.90;;;;;;5086337;28;20044;-75
2023/04/24 02:49:07;;;;;;;6.10;5.60;;;11.00;99.90;;;;;;5085466;28;20097;-73
2023/04/24 02:51:33;;;;;;;6.65;6.00;;;11.00;99.90;;;;;;5087954;28;20044;-73
2023/04/24 02:53:58;;;;;;;6.28;5.68;;;11.00;99.90;;;;;;5087209;28;20534;-74
2023/04/24 02:56:24;;;;;;;5.63;5.05;;;11.00;99.90;;;;;;5085426;28;22066;-73
2023/04/24 02:58:50;;;;;;;4.88;4.38;;;11.00;99.90;;;;;;5079417;28;20071;-74
2023/04/24 03:01:15;;;;;;;5.20;4.70;;;11.00;99.90;;;;;;5086502;28;20050;-74
2023/04/24 03:03:41;;;;;;;5.13;3.97;;;10.90;99.90;;;;;;5065269;28;20047;-74
2023/04/24 03:06:07;;;;;;;4.40;4.00;;;11.00;99.90;;;;;;5085720;28;20078;-74
2023/04/24 03:08:33;;;;;;;3.88;3.58;;;10.90;99.90;;;;;;5085454;28;20050;-74
2023/04/24 03:10:59;;;;;;;4.13;3.72;;;10.90;99.90;;;;;;5083708;28;20089;-73
2023/04/24 03:13:25;;;;;;;3.20;2.90;;;10.90;99.90;;;;;;5085653;28;20593;-72
2023/04/24 03:15:53;;;;;;;4.55;3.30;;;10.90;99.90;;;;;;5080593;28;20532;-74
2023/04/24 03:18:19;;;;;;;4.07;3.67;;;10.90;99.90;;;;;;5068246;28;20072;-74
2023/04/24 03:20:48;;;;;;;4.80;4.13;;;10.90;99.90;;;;;;5082388;28;20079;-75
2023/04/24 03:23:14;;;;;;;4.45;4.03;;;10.80;99.90;;;;;;5055335;28;20080;-74
2023/04/24 03:25:40;;;;;;;5.45;4.95;;;10.90;99.90;;;;;;5081774;28;20071;-74
2023/04/24 03:28:06;;;;;;;6.15;4.50;;;10.90;99.90;;;;;;5076236;28;20040;-73
2023/04/24 03:30:31;;;;;;;5.70;4.65;;;10.90;99.90;;;;;;5063821;28;20050;-73
2023/04/24 03:32:57;;;;;;;4.70;4.30;;;10.90;99.90;;;;;;5083712;28;20051;-73
2023/04/24 03:35:23;;;;;;;4.32;3.78;;;10.80;99.90;;;;;;5066814;28;20032;-73
2023/04/24 03:37:48;;;;;;;4.90;4.50;;;10.80;99.90;;;;;;5086185;28;20082;-73
2023/04/24 03:40:14;;;;;;;5.20;4.78;;;10.80;99.90;;;;;;5081446;28;20040;-73
2023/04/24 03:42:40;;;;;;;4.53;4.13;;;10.80;99.90;;;;;;5084337;28;20036;-74
2023/04/24 03:45:06;;;;;;;6.13;5.53;;;10.80;99.90;;;;;;5076887;28;20070;-74
2023/04/24 03:47:32;;;;;;;6.60;6.00;;;10.80;99.90;;;;;;5081899;28;20032;-72
2023/04/24 03:49:57;;;;;;;7.00;6.30;;;10.80;99.90;;;;;;5078856;28;20046;-74
2023/04/24 03:52:23;;;;;;;7.57;6.88;;;10.70;99.90;;;;;;5079640;28;20123;-73
2023/04/24 03:54:49;;;;;;;7.60;6.90;;;10.70;99.90;;;;;;5072765;28;20075;-72
2023/04/24 03:57:14;;;;;;;8.02;7.28;;;10.70;99.90;;;;;;5081689;28;20472;-73
2023/04/24 03:59:40;;;;;;;9.27;8.38;;;10.70;99.90;;;;;;5080715;28;20674;-74
2023/04/24 04:02:06;;;;;;;9.18;8.27;;;10.70;99.90;;;;;;5067624;28;20060;-73
2023/04/24 04:04:31;;;;;;;9.05;8.15;;;10.70;99.90;;;;;;5083842;28;20731;-72
2023/04/24 04:07:00;;;;;;;9.00;8.20;;;10.70;99.90;;;;;;5086394;28;20449;-74
2023/04/24 04:09:27;;;;;;;9.63;8.73;;;10.70;99.90;;;;;;5058273;28;20046;-72
2023/04/24 04:11:55;;;;;;;9.15;8.25;;;10.70;99.90;;;;;;5084498;28;20044;-73
2023/04/24 04:14:23;;;;;;;9.40;8.50;;;10.60;99.90;;;;;;5076679;28;20093;-73
2023/04/24 04:16:49;;;;;;;10.52;9.52;;;10.60;99.90;;;;;;5087166;28;20048;-73
2023/04/24 04:19:15;;;;;;;10.88;9.88;;;10.60;99.90;;;;;;5084120;28;20079;-72
2023/04/24 04:21:40;;;;;;;10.38;9.48;;;10.60;99.90;;;;;;5086493;28;20071;-73
2023/04/24 04:24:07;;;;;;;11.57;10.48;;;10.60;99.90;;;;;;5084208;28;20050;-73
2023/04/24 04:26:33;;;;;;;11.63;10.45;;;10.60;99.90;;;;;;5058723;28;20140;-73
2023/04/24 04:29:03;;;;;;;12.65;11.45;;;10.60;99.90;;;;;;5083416;28;20499;-74
2023/04/24 04:31:29;;;;;;;12.75;11.43;;;10.60;99.90;;;;;;5077859;28;20562;-74
2023/04/24 04:33:54;;;;;;;12.40;11.15;;;10.60;99.90;;;;;;5057301;28;20071;-73
2023/04/24 04:36:20;;;;;;;12.80;11.60;;;10.50;99.90;;;;;;5081055;28;20068;-72
2023/04/24 04:38:46;;;;;;;11.60;10.45;;;10.60;99.90;;;;;;5082546;28;20439;-74
2023/04/24 04:41:12;;;;;;;11.45;10.27;;;10.60;99.90;;;;;;5077483;28;20036;-72
2023/04/24 04:43:39;;;;;;;11.02;9.05;;;10.60;99.90;;;;;;5080992;28;20056;-73
2023/04/24 04:46:05;;;;;;;;;;;10.60;99.90;;;;;;5065901;28;20050;-72
2023/04/24 04:48:31;;;;;;;9.73;8.73;;;10.40;99.90;;;;;;5082882;28;19931;-74
2023/04/24 04:50:57;;;;;;;8.45;7.65;;;10.50;99.90;;;;;;5079689;28;20085;-72
2023/04/24 04:53:23;;;;;;;8.38;7.32;;;10.60;99.90;;;;;;5079701;28;20044;-73
2023/04/24 04:55:49;;;;;;;8.77;7.25;;;10.50;99.90;;;;;;5074781;28;20817;-73
2023/04/24 04:58:14;;;;;;;7.32;6.63;;;10.50;99.90;;;;;;5072954;28;20039;-73
2023/04/24 05:00:41;;;;;;;7.53;6.88;;;10.50;99.90;;;;;;5075527;28;20051;-74
2023/04/24 05:03:07;;;;;;;7.68;6.97;;;10.50;99.90;;;;;;5060099;28;20411;-73
2023/04/24 05:05:32;;;;;;;7.47;6.78;;;10.50;99.90;;;;;;5077784;28;20049;-73
2023/04/24 05:07:58;;;;;;;7.57;6.88;;;10.60;99.90;;;;;;5102618;27;20379;-74
2023/04/24 05:10:23;;;;;;;6.90;6.20;;;10.50;99.90;;;;;;5082825;28;20040;-74
2023/04/24 05:12:49;;;;;;;6.90;6.28;;;10.50;99.90;;;;;;5078081;28;20040;-73
2023/04/24 05:15:15;;;;;;;6.80;6.15;;;10.60;99.90;;;;;;5059674;28;20040;-73
2023/04/24 05:17:40;;;;;;;6.28;5.75;;;10.50;99.90;;;;;;5069368;28;20048;-74
2023/04/24 05:20:07;;;;;;;6.55;5.93;;;10.60;99.90;;;;;;5079529;28;20517;-72
2023/04/24 05:22:33;;;;;;;5.93;5.43;;;10.60;99.90;;;;;;5083236;28;20048;-74
2023/04/24 05:24:58;;;;;;;6.20;5.20;;;10.50;99.90;;;;;;5065470;28;20040;-73
2023/04/24 05:27:24;;;;;;;5.72;5.10;;;10.60;99.90;;;;;;5073937;28;20158;-73
2023/04/24 05:29:50;;;;;;;5.57;4.70;;;10.60;99.90;;;;;;5063973;28;20683;-73
2023/04/24 05:32:16;;;;;;;4.95;4.20;;;10.60;99.90;;;;;;5077912;28;20044;-73
2023/04/24 05:34:42;;;;;;;3.53;3.22;;;10.60;99.90;;;;;;5081391;28;20535;-73
2023/04/24 05:37:09;;;;;;;4.10;3.70;;;10.60;99.90;;;;;;5064114;28;20522;-74
2023/04/24 05:39:35;;;;;;;;;;;10.60;99.90;;;;;;5061498;28;20044;-72
2023/04/24 05:42:02;;;;;;;5.43;4.50;;;10.60;99.90;;;;;;5077003;28;20327;-74
2023/04/24 05:44:27;;;;;;;5.90;5.38;;;10.60;99.90;;;;;;5084138;28;20040;-73
2023/04/24 05:46:55;;;;;;;6.32;5.78;;;10.50;99.90;;;;;;5072844;28;20044;-72
2023/04/24 05:49:21;;;;;;;6.88;6.18;;;10.60;99.90;;;;;;5079355;28;20044;-73
2023/04/24 05:51:47;;;;;;;6.82;6.22;;;10.60;99.90;;;;;;5060865;28;20051;-73
2023/04/24 05:54:13;;;;;;;5.40;4.90;;;10.60;99.90;;;;;;5075417;28;20055;-72
2023/04/24 05:56:39;;;;;;;5.63;5.03;;;10.60;99.90;;;;;;5072584;28;20124;-71
2023/04/24 05:59:05;;;;;;;5.00;4.50;;;10.70;99.90;;;;;;5063513;28;20212;-72
2023/04/24 06:01:31;;;;;;;5.07;4.55;;;10.70;99.90;;;;;;5091901;28;21024;-72
2023/04/24 06:03:57;;;;;;;3.22;2.95;;;10.60;99.90;;;;;;5080731;28;20055;-71
2023/04/24 06:06:23;;;;;;;3.30;2.97;;;10.60;99.90;;;;;;5063881;28;20043;-71
2023/04/24 06:08:51;;;;;;;3.33;3.07;;;10.60;99.90;;;;;;5056044;28;20048;-71
2023/04/24 06:11:17;;;;;;;3.63;3.30;;;10.60;99.90;;;;;;5073861;28;20294;-72
2023/04/24 06:13:43;;;;;;;3.42;3.10;;;10.60;99.90;;;;;;5057269;28;20039;-73
2023/04/24 06:16:09;;;;;;;3.85;3.35;;;10.60;99.90;;;;;;5073440;28;20040;-73
2023/04/24 06:18:34;;;;;;;4.10;3.70;;;10.60;99.90;;;;;;5081825;28;20048;-72
2023/04/24 06:21:00;;;;;;;4.05;3.60;;;10.60;99.90;;;;;;5079978;28;20663;-73
2023/04/24 06:23:26;;;;;;;3.38;3.00;;;10.60;99.90;;;;;;5091258;28;20135;-73
2023/04/24 06:25:51;;;;;;;4.63;3.63;;;10.60;99.90;;;;;;5085467;28;20118;-75
2023/04/24 06:28:17;;;;;;;4.70;3.63;;;10.60;99.90;;;;;;5063618;28;20396;-73
2023/04/24 06:30:43;;;;;;;4.72;4.20;;;10.60;99.90;;;;;;5097710;28;20039;-73
2023/04/24 06:33:09;;;;;;;4.93;4.43;;;10.60;99.90;;;;;;5079282;28;20055;-73
2023/04/24 06:35:36;;;;;;;6.03;5.43;;;10.60;99.90;;;;;;5083415;28;20039;-72
2023/04/24 06:38:01;;;;;;;7.83;6.63;;;10.50;99.90;;;;;;5084193;28;20044;-71
2023/04/24 06:40:27;;;;;;;9.32;7.80;;;10.50;99.90;;;;;;5078558;28;20483;-73
2023/04/24 06:42:53;;;;;;;9.15;8.25;;;10.50;99.90;;;;;;5078579;28;20071;-72
2023/04/24 06:45:22;;;;;;;10.00;8.93;;;10.50;99.90;;;;;;5076459;28;20041;-72
2023/04/24 06:47:47;;;;;;;10.95;9.73;;;10.50;99.90;;;;;;5070423;28;20036;-72
2023/04/24 06:50:13;;;;;;;11.38;10.18;;;10.50;99.90;;;;;;5078366;28;20043;-73
2023/04/24 06:52:39;;;;;;;11.82;10.63;;;10.50;99.90;;;;;;5078284;28;20068;-72
2023/04/24 06:55:05;;;;;;;13.25;11.95;;;10.50;99.90;;;;;;5079251;28;20039;-72
2023/04/24 06:57:31;;;;;;;14.05;12.70;;;10.50;99.90;;;;;;5059389;28;20496;-72
2023/04/24 06:59:57;;;;;;;15.32;13.82;;;10.50;99.90;;;;;;5081456;28;20569;-72
2023/04/24 07:02:23;;;;;;;15.90;14.30;;;10.50;99.90;;;;;;5075786;28;20254;-73
2023/04/24 07:04:49;;;;;;;16.88;14.88;;;10.40;99.90;;;;;;5071368;28;20746;-73
2023/04/24 07:07:15;;;;;;;17.30;15.63;;;10.40;99.90;;;;;;5080361;28;20403;-73
2023/04/24 07:09:42;;;;;;;19.08;17.17;;;10.40;99.90;;;;;;5073637;28;20101;-73
2023/04/24 07:12:10;;;;;;;18.30;16.50;;;10.40;99.90;;;;;;5095222;28;20039;-72
2023/04/24 07:14:37;;;;;;;18.45;16.65;;;10.40;99.90;;;;;;5077617;28;20049;-74
2023/04/24 07:17:04;;;;;;;18.08;16.38;;;10.40;99.90;;;;;;5075396;28;20036;-73
2023/04/24 07:19:30;;;;;;;16.30;14.75;;;10.30;99.90;;;;;;5066516;28;20040;-71
2023/04/24 07:21:58;;;;;;;15.07;13.52;;;10.20;99.90;;;;;;5075967;28;20045;-76
2023/04/24 07:24:24;;;;;;;;;;;10.30;99.90;;;;;;5073171;28;20104;-74
2023/04/24 07:26:51;;;;;;;14.57;13.07;;;10.30;99.90;;;;;;5093017;28;19920;-72
2023/04/24 07:29:17;;;;;;;13.32;12.02;;;10.30;99.90;;;;;;5069187;28;20078;-72
2023/04/24 07:31:43;;;;;;;12.00;10.75;;;10.30;99.90;;;;;;5088202;28;20063;-71
2023/04/24 07:34:09;;;;;;;11.43;10.32;;;10.30;99.90;;;;;;5077760;28;20630;-72
2023/04/24 07:36:35;;;;;;;11.75;10.43;;;10.30;99.90;;;;;;5076588;28;20059;-73
2023/04/24 07:39:01;;;;;;;12.73;11.52;;;10.30;99.90;;;;;;5086973;28;20119;-71
2023/04/24 07:41:27;;;;;;;11.82;10.63;;;10.30;99.90;;;;;;5088675;28;20115;-71
2023/04/24 07:43:53;;;;;;;12.63;11.43;;;10.30;99.90;;;;;;5087085;28;20486;-70
2023/04/24 07:46:20;;;;;;;6.85;6.13;;;10.30;99.90;;;;;;5080973;28;20036;-72
2023/04/24 07:48:47;;;;;;;6.65;5.95;;;10.20;99.90;;;;;;5087115;28;20036;-72
2023/04/24 07:51:14;;;;;;;9.32;7.10;;;10.20;99.90;;;;;;5084827;28;20042;-73
2023/04/24 07:53:40;;;;;;;5.07;4.45;;;10.10;99.90;;;;;;5081093;28;20123;-72
2023/04/24 07:56:06;;;;;;;5.20;4.22;;;10.20;99.90;;;;;;5060870;28;20152;-72
2023/04/24 07:58:31;;;;;;;3.58;3.20;;;10.20;99.90;;;;;;5085374;28;20101;-72
2023/04/24 08:00:57;;;;;;;3.72;3.10;;;10.20;99.90;;;;;;5088341;28;20423;-72
2023/04/24 08:03:23;;;;;;;3.50;2.80;;;10.10;99.90;;;;;;5085913;28;20075;-72
2023/04/24 08:05:50;;;;;;;4.15;3.00;;;10.20;99.90;;;;;;5086136;28;20594;-74
2023/04/24 08:08:16;;;;;;;3.55;2.83;;;10.20;99.90;;;;;;5069240;28;20194;-73
2023/04/24 08:10:42;;;;;;;4.00;2.78;;;10.20;99.90;;;;;;5088149;28;20119;-74
2023/04/24 08:13:08;;;;;;;3.45;3.10;;;10.20;99.90;;;;;;5084869;28;20081;-72
2023/04/24 08:15:34;;;;;;;4.50;3.28;;;10.20;99.90;;;;;;5085670;28;20050;-71
2023/04/24 08:18:00;;;;;;;5.78;4.15;;;10.20;99.90;;;;;;5075559;28;20036;-72
2023/04/24 08:20:26;;;;;;;6.65;3.85;;;10.20;99.90;;;;;;5083559;28;20066;-71
2023/04/24 08:22:51;;;;;;;4.68;3.80;;;10.20;99.90;;;;;;5075418;28;20368;-72
2023/04/24 08:25:18;;;;;;;6.28;3.70;;;10.30;99.90;;;;;;5080550;28;20040;-71
2023/04/24 08:27:44;;;;;;;4.38;3.47;;;10.20;99.90;;;;;;5086754;28;20174;-73
2023/04/24 08:30:10;;;;;;;3.75;3.17;;;10.30;99.90;;;;;;5086571;28;20488;-72
2023/04/24 08:32:36;;;;;;;4.75;3.80;;;10.30;99.90;;;;;;5070553;28;20040;-72
2023/04/24 08:35:02;;;;;;;4.10;3.70;;;10.40;99.90;;;;;;5066631;28;20678;-71
2023/04/24 08:37:28;;;;;;;5.50;3.40;;;10.40;99.90;;;;;;5082371;28;20036;-70
2023/04/24 08:39:54;;;;;;;5.25;4.05;;;10.30;99.90;;;;;;5085448;28;20039;-72
2023/04/24 08:42:20;;;;;;;5.00;3.55;;;10.40;99.90;;;;;;5085873;28;20475;-71
2023/04/24 08:44:48;;;;;;;6.30;4.50;;;10.40;99.90;;;;;;5085958;28;20052;-71
2023/04/24 08:47:14;;;;;;;;;;;10.40;99.90;;;;;;5083249;28;20102;-70
2023/04/24 08:49:40;;;;;;;5.20;3.20;;;10.30;99.90;;;;;;5086222;28;19923;-70
2023/04/24 08:52:06;;;;;;;3.28;2.20;;;10.30;99.90;;;;;;5078407;28;20036;-70
2023/04/24 08:54:38;;;;;;;3.15;2.22;;;10.20;99.90;;;;;;5085664;28;20123;-70
2023/04/24 08:57:09;;;;;;;4.40;2.58;;;10.20;99.90;;;;;;5081960;28;20086;-72
2023/04/24 08:59:35;;;;;;;4.18;2.75;;;10.20;99.90;;;;;;5080761;28;20043;-74
2023/04/24 09:02:03;;;;;;;6.20;2.88;;;10.10;99.90;;;;;;5077729;28;20134;-75
2023/04/24 09:04:31;;;;;;;6.50;3.25;;;10.20;99.90;;;;;;5074803;28;20565;-74
2023/04/24 09:06:58;;;;;;;5.60;3.40;;;10.20;99.90;;;;;;5083964;28;20071;-73
2023/04/24 09:09:25;;;;;;;7.17;3.60;;;10.10;99.90;;;;;;5070767;28;20052;-74
2023/04/24 09:11:53;;;;;;;7.70;4.83;;;10.10;99.90;;;;;;5077915;28;20290;-72
2023/04/24 09:14:20;;;;;;;8.85;5.30;;;10.20;99.90;;;;;;5078198;28;20044;-75
2023/04/24 09:16:46;;;;;;;9.13;6.57;;;10.10;99.90;;;;;;5082836;28;20043;-75
2023/04/24 09:19:12;;;;;;;11.50;8.35;;;10.10;99.90;;;;;;5076009;28;20032;-74
2023/04/24 09:21:38;;;;;;;10.82;7.95;;;10.00;99.90;;;;;;5093723;28;20098;-75
2023/04/24 09:24:06;;;;;;;14.40;9.15;;;10.00;99.90;;;;;;5062422;28;20117;-75
2023/04/24 09:26:35;;;;;;;15.07;9.57;;;10.00;99.90;;;;;;5082030;28;20665;-73
2023/04/24 09:29:04;;;;;;;14.55;10.95;;;10.00;99.90;;;;;;5102763;28;20048;-75
2023/04/24 09:31:30;;;;;;;14.32;10.00;;;10.00;99.90;;;;;;5064752;28;20040;-74
2023/04/24 09:34:03;;;;;;;14.65;11.15;;;10.00;99.90;;;;;;5085303;28;20093;-77
2023/04/24 09:36:33;;;;;;;14.38;10.50;;;10.00;99.90;;;;;;5084836;28;20052;-76
2023/04/24 09:39:00;;;;;;;13.80;10.85;;;10.00;99.90;;;;;;5096114;28;20052;-75
2023/04/24 09:41:29;;;;;;;16.10;11.55;;;10.00;99.90;;;;;;5080703;28;20044;-75
2023/04/24 09:43:55;;;;;;;13.02;10.15;;;10.00;99.90;;;;;;5082140;28;20032;-74
2023/04/24 09:46:22;;;;;;;16.50;11.93;;;10.00;99.90;;;;;;5085190;28;20066;-73
2023/04/24 09:48:47;;;;;;;13.50;11.67;;;10.10;99.90;;;;;;5085685;28;20052;-73
2023/04/24 09:51:15;;;;;;;17.23;14.02;;;9.90;99.90;;;;;;5085210;28;20040;-76
2023/04/24 09:53:46;;;;;;;22.63;15.55;;;9.90;99.90;;;;;;5083441;28;20094;-74
2023/04/24 09:56:12;;;;;;;19.20;16.38;;;9.80;99.90;;;;;;5087955;28;20040;-74
2023/04/24 09:58:39;;;;;;;23.90;17.98;;;9.80;99.90;;;;;;5088593;28;20048;-73
2023/04/24 10:01:05;;;;;;;24.27;19.00;;;9.80;99.90;;;;;;5090331;28;20071;-74
2023/04/24 10:03:32;;;;;;;25.20;18.35;;;9.70;99.90;;;;;;5072633;28;20059;-74
2023/04/24 10:06:08;;;;;;;24.88;19.35;;;9.70;99.90;;;;;;5079081;28;20048;-71
2023/04/24 10:08:35;;;;;;;21.10;17.98;;;9.80;99.90;;;;;;5080048;28;20054;-73
2023/04/24 10:11:02;;;;;;;22.33;17.35;;;9.80;99.90;;;;;;5086625;28;20119;-74
2023/04/24 10:13:28;;;;;;;20.13;16.20;;;9.80;99.90;;;;;;5088941;28;20090;-74
2023/04/24 10:15:56;;;;;;;19.70;16.23;;;9.70;99.90;;;;;;5088167;28;20123;-75
2023/04/24 10:18:22;;;;;;;24.17;17.08;;;9.70;99.90;;;;;;5090834;28;20097;-76
2023/04/24 10:20:48;;;;;;;20.70;15.73;;;9.60;99.90;;;;;;5086881;28;20044;-73
2023/04/24 10:23:14;;;;;;;19.65;16.23;;;9.70;99.90;;;;;;5068781;28;20412;-72
2023/04/24 10:25:40;;;;;;;18.02;15.48;;;9.70;99.90;;;;;;5087928;28;20067;-75
2023/04/24 10:28:06;;;;;;;17.75;14.48;;;9.70;99.90;;;;;;5086664;28;20561;-77
2023/04/24 10:30:35;;;;;;;17.13;15.20;;;9.70;99.90;;;;;;5087574;28;20597;-76
2023/04/24 10:33:05;;;;;;;20.80;15.00;;;9.70;99.90;;;;;;5081792;28;20119;-73
2023/04/24 10:35:34;;;;;;;19.13;14.35;;;9.70;99.90;;;;;;5089305;28;20035;-74
2023/04/24 10:38:08;;;;;;;18.17;14.40;;;9.70;99.90;;;;;;5069429;28;20487;-75
2023/04/24 10:40:35;;;;;;;18.98;15.45;;;9.70;99.90;;;;;;5075135;28;20067;-73
2023/04/24 10:43:07;;;;;;;18.95;15.15;;;9.60;99.90;;;;;;5084316;28;20144;-74
2023/04/24 10:45:34;;;;;;;18.65;13.82;;;9.70;99.90;;;;;;5067970;28;20048;-75
2023/04/24 10:48:13;;;;;;;16.35;13.05;;;9.70;99.90;;;;;;5081860;28;20044;-71
2023/04/24 10:50:47;;;;;;;18.70;12.57;;;9.70;99.90;;;;;;5065951;28;20058;-70
2023/04/24 10:53:19;;;;;;;19.40;12.40;;;9.80;99.90;;;;;;5065807;28;20036;-71
2023/04/24 10:55:48;;;;;;;17.50;12.27;;;9.80;99.90;;;;;;5083872;28;20095;-72
2023/04/24 10:58:16;;;;;;;17.80;11.40;;;9.80;99.90;;;;;;5086689;28;20032;-72
2023/04/24 11:00:43;;;;;;;19.63;11.50;;;9.80;99.90;;;;;;5082229;28;20052;-74
2023/04/24 11:03:29;;;;;;;;;;;9.80;99.90;;;;;;5070892;28;20048;-74
2023/04/24 11:06:06;;;;;;;16.15;9.93;;;9.70;99.90;;;;;;5066628;28;19932;-73
2023/04/24 11:08:45;;;;;;;15.93;9.45;;;9.80;99.90;;;;;;5082865;28;20094;-73
2023/04/24 11:11:14;;;;;;;13.65;6.40;;;9.80;99.90;;;;;;5088853;28;20081;-73
2023/04/24 11:14:15;;;;;;;16.23;6.28;;;9.70;99.90;;;;;;5086918;28;20441;-72
2023/04/24 11:16:51;;;;;;;15.82;6.15;;;9.60;99.90;;;;;;5026164;28;20044;-72
2023/04/24 11:19:17;;;;;;;14.20;5.70;;;9.60;99.90;;;;;;5069352;28;20119;-73
2023/04/24 11:21:43;;;;;;;11.32;5.45;;;9.60;99.90;;;;;;5067822;28;20140;-73
2023/04/24 11:24:39;;;;;;;15.33;5.00;;;9.50;99.90;;;;;;5087961;28;20574;-74
2023/04/24 11:27:04;;;;;;;12.68;4.35;;;9.50;99.90;;;;;;5082718;28;20815;-72
2023/04/24 11:29:59;;;;;;;12.57;5.10;;;9.50;99.90;;;;;;5086536;28;20056;-72
2023/04/24 11:32:29;;;;;;;12.55;4.97;;;9.50;99.90;;;;;;5080061;28;20438;-71
2023/04/24 11:34:57;;;;;;;12.75;4.82;;;9.50;99.90;;;;;;5084547;28;20044;-69
2023/04/24 11:37:28;;;;;;;13.30;4.70;;;9.60;99.90;;;;;;5078842;28;20043;-69
2023/04/24 11:39:56;;;;;;;11.95;4.15;;;9.70;99.90;;;;;;5087050;28;20144;-69
2023/04/24 11:42:23;;;;;;;13.30;4.93;;;9.70;99.90;;;;;;5088283;28;20185;-69
2023/04/24 11:44:55;;;;;;;9.65;4.40;;;9.70;99.90;;;;;;5088010;28;20051;-69
2023/04/24 11:47:30;;;;;;;12.52;4.88;;;9.70;99.90;;;;;;5086661;28;20067;-70
2023/04/24 11:49:57;;;;;;;8.80;4.03;;;9.70;99.90;;;;;;5088356;28;20032;-69
2023/04/24 11:52:23;;;;;;;11.73;4.03;;;9.70;99.90;;;;;;5082579;28;20117;-69
2023/04/24 11:54:50;;;;;;;12.32;4.30;;;9.60;99.90;;;;;;5088563;28;20950;-69
2023/04/24 11:57:16;;;;;;;11.55;4.00;;;9.60;99.90;;;;;;5086439;28;20040;-69
2023/04/24 11:59:41;;;;;;;10.05;3.22;;;9.60;99.90;;;;;;5085153;28;20044;-69
2023/04/24 12:02:07;;;;;;;10.98;3.75;;;9.60;99.90;;;;;;5081933;28;20052;-69
2023/04/24 12:04:42;;;;;;;14.23;4.22;;;9.60;99.90;;;;;;5086474;28;20097;-67
2023/04/24 12:07:08;;;;;;;8.50;3.65;;;9.70;99.90;;;;;;5067442;28;20522;-68
2023/04/24 12:09:45;;;;;;;8.02;2.80;;;9.80;99.90;;;;;;5060190;28;20052;-68
2023/04/24 12:12:13;;;;;;;14.63;3.65;;;9.80;99.90;;;;;;5067802;28;20542;-69
2023/04/24 12:14:43;;;;;;;11.13;3.40;;;9.90;99.90;;;;;;5097267;28;20079;-69
2023/04/24 12:17:09;;;;;;;10.02;3.28;;;10.00;99.90;;;;;;5087437;28;20043;-71
2023/04/24 12:19:37;;;;;;;11.32;3.08;;;10.10;99.90;;;;;;5083056;28;20036;-70
2023/04/24 12:22:05;;;;;;;11.48;3.65;;;10.20;99.90;;;;;;5084037;28;20040;-71
2023/04/24 12:24:31;;;;;;;11.88;3.25;;;10.20;99.90;;;;;;5059482;28;20036;-71
2023/04/24 12:26:57;;;;;;;11.02;3.70;;;10.30;99.90;;;;;;5086790;28;20039;-71
2023/04/24 12:29:24;;;;;;;10.77;3.30;;;10.40;99.90;;;;;;5069391;28;20047;-72
2023/04/24 12:31:51;;;;;;;11.10;3.28;;;10.40;99.90;;;;;;5088195;28;20043;-72
2023/04/24 12:34:25;;;;;;;9.10;2.83;;;10.40;99.90;;;;;;5083574;28;20386;-74
2023/04/24 12:36:50;;;;;;;8.30;2.58;;;10.30;99.90;;;;;;5097065;28;20048;-71
2023/04/24 12:39:19;;;;;;;9.57;3.47;;;10.30;99.90;;;;;;5092274;28;20059;-70
2023/04/24 12:41:56;;;;;;;10.73;2.92;;;10.20;99.90;;;;;;5081390;28;20047;-72
2023/04/24 12:44:36;;;;;;;10.85;3.15;;;10.20;99.90;;;;;;5084014;28;20093;-71